createdAt,value
2019-03-27T00:00:42.785Z,98367.00
2019-03-27T00:03:15.903Z,98363.00
2019-03-27T00:05:47.902Z,98367.00
2019-03-27T00:08:20.012Z,98365.00
2019-03-27T00:10:52.102Z,98372.00
2019-03-27T00:13:24.494Z,98370.00
2019-03-27T00:15:56.333Z,98335.00
2019-03-27T00:18:28.432Z,98360.00
2019-03-27T00:21:00.635Z,98364.00
2019-03-27T00:23:33.169Z,98360.00
2019-03-27T00:26:05.560Z,98369.00
2019-03-27T00:28:37.639Z,98356.00
2019-03-27T00:31:11.875Z,98365.00
2019-03-27T00:33:43.413Z,98369.00
2019-03-27T00:36:15.505Z,98353.00
2019-03-27T00:38:47.963Z,98351.00
2019-03-27T00:41:20.288Z,98360.00
2019-03-27T00:43:53.087Z,98357.00
2019-03-27T00:46:25.110Z,98356.00
2019-03-27T00:48:57.403Z,98361.00
2019-03-27T00:51:30.386Z,98367.00
2019-03-27T00:54:02.500Z,98374.00
2019-03-27T00:56:34.499Z,98371.00
2019-03-27T00:59:06.959Z,98370.00
2019-03-27T01:01:39.667Z,98371.00
2019-03-27T01:04:11.681Z,98329.00
2019-03-27T01:06:43.847Z,98366.00
2019-03-27T01:09:15.922Z,98359.00
2019-03-27T01:11:47.985Z,98360.00
2019-03-27T01:14:20.466Z,98370.00
2019-03-27T01:16:52.765Z,98362.00
2019-03-27T01:19:24.875Z,98370.00
2019-03-27T01:21:57.038Z,98359.00
2019-03-27T01:24:29.391Z,98366.00
2019-03-27T01:27:01.370Z,98368.00
2019-03-27T01:29:33.661Z,98365.00
2019-03-27T01:32:05.686Z,98369.00
2019-03-27T01:34:37.641Z,98370.00
2019-03-27T01:37:10.181Z,98366.00
2019-03-27T01:39:42.547Z,98377.00
2019-03-27T01:42:14.617Z,98371.00
2019-03-27T01:44:47.013Z,98374.00
2019-03-27T01:47:19.368Z,98375.00
2019-03-27T01:49:52.342Z,98364.00
2019-03-27T01:52:25.049Z,98359.00
2019-03-27T01:54:57.315Z,98359.00
2019-03-27T01:57:29.374Z,98360.00
2019-03-27T02:00:01.676Z,98366.00
2019-03-27T02:02:34.655Z,98353.00
2019-03-27T02:05:07.422Z,98369.00
2019-03-27T02:07:39.400Z,98364.00
2019-03-27T02:10:13.027Z,98366.00
2019-03-27T02:12:45.092Z,98368.00
2019-03-27T02:15:17.176Z,98367.00
2019-03-27T02:17:49.159Z,98367.00
2019-03-27T02:20:21.187Z,98370.00
2019-03-27T02:22:53.461Z,98366.00
2019-03-27T02:25:25.505Z,98375.00
2019-03-27T02:27:57.546Z,98372.00
2019-03-27T02:30:30.910Z,98364.00
2019-03-27T02:33:02.942Z,98372.00
2019-03-27T02:35:35.854Z,98366.00
2019-03-27T02:38:07.979Z,98371.00
2019-03-27T02:40:40.116Z,98373.00
2019-03-27T02:43:12.398Z,98384.00
2019-03-27T02:45:44.626Z,98378.00
2019-03-27T02:48:16.823Z,98383.00
2019-03-27T02:50:48.896Z,98389.00
2019-03-27T02:53:20.942Z,98384.00
2019-03-27T02:55:52.982Z,98396.00
2019-03-27T02:58:26.274Z,98386.00
2019-03-27T03:00:58.453Z,98385.00
2019-03-27T03:03:30.246Z,98386.00
2019-03-27T03:06:02.517Z,98387.00
2019-03-27T03:08:34.722Z,98387.00
2019-03-27T03:11:06.913Z,98393.00
2019-03-27T03:13:38.901Z,98386.00
2019-03-27T03:16:11.338Z,98394.00
2019-03-27T03:18:43.308Z,98386.00
2019-03-27T03:21:16.224Z,98383.00
2019-03-27T03:23:48.217Z,98381.00
2019-03-27T03:26:20.306Z,98395.00
2019-03-27T03:28:52.302Z,98398.00
2019-03-27T03:31:24.581Z,98393.00
2019-03-27T03:33:56.955Z,98387.00
2019-03-27T03:36:29.289Z,98393.00
2019-03-27T03:39:01.315Z,98383.00
2019-03-27T03:41:33.913Z,98393.00
2019-03-27T03:44:06.025Z,98395.00
2019-03-27T03:46:38.467Z,98403.00
2019-03-27T03:49:11.077Z,98408.00
2019-03-27T03:51:43.245Z,98411.00
2019-03-27T03:54:15.518Z,98413.00
2019-03-27T03:56:51.386Z,98411.00
2019-03-27T03:59:26.570Z,98404.00
2019-03-27T04:02:01.577Z,98418.00
2019-03-27T04:04:36.842Z,98354.00
2019-03-27T04:07:09.095Z,98412.00
2019-03-27T04:09:41.684Z,98414.00
2019-03-27T04:12:13.643Z,98414.00
2019-03-27T04:14:45.558Z,98416.00
2019-03-27T04:17:18.158Z,98423.00
2019-03-27T04:19:50.108Z,98429.00
2019-03-27T04:22:22.429Z,98422.00
2019-03-27T04:24:54.413Z,98424.00
2019-03-27T04:27:26.550Z,98429.00
2019-03-27T04:29:58.560Z,98427.00
2019-03-27T04:32:30.692Z,98414.00
2019-03-27T04:35:03.141Z,98416.00
2019-03-27T04:37:35.204Z,98424.00
2019-03-27T04:40:08.397Z,98424.00
2019-03-27T04:42:41.559Z,98423.00
2019-03-27T04:45:15.114Z,98440.00
2019-03-27T04:47:47.589Z,98426.00
2019-03-27T04:50:19.653Z,98427.00
2019-03-27T04:52:51.901Z,98432.00
2019-03-27T04:55:24.375Z,98429.00
2019-03-27T04:57:56.400Z,98438.00
2019-03-27T05:00:28.450Z,98434.00
2019-03-27T05:03:00.493Z,98438.00
2019-03-27T05:05:32.970Z,98432.00
2019-03-27T05:08:04.968Z,98435.00
2019-03-27T05:10:37.061Z,98427.00
2019-03-27T05:13:09.501Z,98444.00
2019-03-27T05:15:41.845Z,98444.00
2019-03-27T05:18:14.081Z,98448.00
2019-03-27T05:20:46.665Z,98450.00
2019-03-27T05:23:18.748Z,98451.00
2019-03-27T05:25:50.880Z,98455.00
2019-03-27T05:28:23.186Z,98460.00
2019-03-27T05:30:55.199Z,98465.00
2019-03-27T05:33:28.850Z,98460.00
2019-03-27T05:36:00.716Z,98472.00
2019-03-27T05:38:32.723Z,98476.00
2019-03-27T05:41:04.851Z,98476.00
2019-03-27T05:43:37.024Z,98471.00
2019-03-27T05:46:10.475Z,98474.00
2019-03-27T05:48:42.503Z,98484.00
2019-03-27T05:51:17.469Z,98478.00
2019-03-27T05:53:49.580Z,98485.00
2019-03-27T05:56:21.617Z,98486.00
2019-03-27T05:58:53.632Z,98488.00
2019-03-27T06:01:25.574Z,98493.00
2019-03-27T06:03:57.593Z,98488.00
2019-03-27T06:06:29.871Z,98496.00
2019-03-27T06:09:04.614Z,98497.00
2019-03-27T06:11:36.591Z,98493.00
2019-03-27T06:14:08.627Z,98500.00
2019-03-27T06:16:40.968Z,98504.00
2019-03-27T06:19:12.862Z,98500.00
2019-03-27T06:21:44.857Z,98512.00
2019-03-27T06:24:17.230Z,98511.00
2019-03-27T06:26:49.320Z,98513.00
2019-03-27T06:29:21.240Z,98504.00
2019-03-27T06:31:53.611Z,98515.00
2019-03-27T06:34:25.895Z,98518.00
2019-03-27T06:36:57.912Z,98521.00
2019-03-27T06:39:29.898Z,98516.00
2019-03-27T06:42:01.756Z,98517.00
2019-03-27T06:44:35.026Z,98534.00
2019-03-27T06:47:07.154Z,98528.00
2019-03-27T06:49:39.466Z,98538.00
2019-03-27T06:52:11.467Z,98529.00
2019-03-27T06:54:43.367Z,98538.00
2019-03-27T06:57:15.414Z,98541.00
2019-03-27T06:59:47.476Z,98555.00
2019-03-27T07:02:19.808Z,98548.00
2019-03-27T07:04:51.631Z,98545.00
2019-03-27T07:07:23.920Z,98553.00
2019-03-27T07:09:56.481Z,98555.00
2019-03-27T07:12:28.635Z,98559.00
2019-03-27T07:15:00.714Z,98557.00
2019-03-27T07:17:33.002Z,98564.00
2019-03-27T07:20:05.761Z,98555.00
2019-03-27T07:22:37.765Z,98561.00
2019-03-27T07:25:10.273Z,98561.00
2019-03-27T07:27:42.700Z,98561.00
2019-03-27T07:30:16.338Z,98565.00
2019-03-27T07:32:48.581Z,98558.00
2019-03-27T07:35:20.529Z,98566.00
2019-03-27T07:37:52.563Z,98570.00
2019-03-27T07:40:24.855Z,98575.00
2019-03-27T07:42:56.978Z,98578.00
2019-03-27T07:45:28.965Z,98589.00
2019-03-27T07:48:00.844Z,98594.00
2019-03-27T07:50:32.893Z,98595.00
2019-03-27T07:53:04.906Z,98601.00
2019-03-27T07:55:36.974Z,98595.00
2019-03-27T07:58:08.868Z,98600.00
2019-03-27T08:00:40.991Z,98608.00
2019-03-27T08:03:13.043Z,98609.00
2019-03-27T08:05:45.074Z,98610.00
2019-03-27T08:08:17.345Z,98611.00
2019-03-27T08:10:49.617Z,98605.00
2019-03-27T08:13:22.005Z,98599.00
2019-03-27T08:15:54.303Z,98602.00
2019-03-27T08:18:26.635Z,98611.00
2019-03-27T08:20:58.902Z,98601.00
2019-03-27T08:23:30.895Z,98611.00
2019-03-27T08:26:03.424Z,98605.00
2019-03-27T08:28:35.508Z,98612.00
2019-03-27T08:31:07.601Z,98611.00
2019-03-27T08:33:39.900Z,98603.00
2019-03-27T08:36:12.179Z,98610.00
2019-03-27T08:38:44.025Z,98610.00
2019-03-27T08:41:16.097Z,98613.00
2019-03-27T08:43:48.471Z,98620.00
2019-03-27T08:46:20.572Z,98622.00
2019-03-27T08:48:52.656Z,98621.00
2019-03-27T08:51:24.699Z,98617.00
2019-03-27T08:53:56.947Z,98624.00
2019-03-27T08:56:29.972Z,98619.00
2019-03-27T08:59:01.918Z,98625.00
2019-03-27T09:01:33.959Z,98634.00
2019-03-27T09:04:07.349Z,98635.00
2019-03-27T09:06:39.351Z,98630.00
2019-03-27T09:09:12.442Z,98629.00
2019-03-27T09:11:44.930Z,98633.00
2019-03-27T09:14:16.914Z,98634.00
2019-03-27T09:16:48.925Z,98632.00
2019-03-27T09:19:34.926Z,98633.00
2019-03-27T09:21:55.978Z,98621.00
2019-03-27T09:24:28.492Z,98623.00
2019-03-27T09:27:00.843Z,98628.00
2019-03-27T09:29:32.874Z,98627.00
2019-03-27T09:32:04.891Z,98624.00
2019-03-27T09:34:37.332Z,98627.00
2019-03-27T09:37:09.946Z,98638.00
2019-03-27T09:39:42.221Z,98630.00
2019-03-27T09:42:14.352Z,98618.00
2019-03-27T09:44:46.811Z,98623.00
2019-03-27T09:47:20.144Z,98625.00
2019-03-27T09:49:52.254Z,98636.00
2019-03-27T09:52:25.592Z,98629.00
2019-03-27T09:54:57.953Z,98630.00
2019-03-27T09:57:30.426Z,98632.00
2019-03-27T10:00:02.486Z,98624.00
2019-03-27T10:02:34.832Z,98625.00
2019-03-27T10:05:06.966Z,98626.00
2019-03-27T10:07:39.089Z,98633.00
2019-03-27T10:10:11.457Z,98617.00
2019-03-27T10:12:43.967Z,98629.00
2019-03-27T10:15:16.124Z,98635.00
2019-03-27T10:17:48.057Z,98643.00
2019-03-27T10:20:20.317Z,98635.00
2019-03-27T10:22:52.327Z,98633.00
2019-03-27T10:25:24.226Z,98647.00
2019-03-27T10:27:56.429Z,98631.00
2019-03-27T10:30:28.678Z,98639.00
2019-03-27T10:33:00.760Z,98642.00
2019-03-27T10:35:32.743Z,98650.00
2019-03-27T10:38:05.194Z,98651.00
2019-03-27T10:40:37.086Z,98658.00
2019-03-27T10:43:09.245Z,98647.00
2019-03-27T10:45:41.643Z,98655.00
2019-03-27T10:48:13.994Z,98658.00
2019-03-27T10:50:46.449Z,98656.00
2019-03-27T10:53:18.514Z,98648.00
2019-03-27T10:55:50.499Z,98642.00
2019-03-27T10:58:22.430Z,98649.00
2019-03-27T11:00:54.479Z,98655.00
2019-03-27T11:03:26.895Z,98656.00
2019-03-27T11:05:59.055Z,98652.00
2019-03-27T11:08:31.186Z,98656.00
2019-03-27T11:11:03.466Z,98655.00
2019-03-27T11:13:35.608Z,98657.00
2019-03-27T11:16:07.550Z,98665.00
2019-03-27T11:18:39.549Z,98671.00
2019-03-27T11:21:11.449Z,98664.00
2019-03-27T11:23:43.699Z,98676.00
2019-03-27T11:26:15.696Z,98664.00
2019-03-27T11:28:48.238Z,98674.00
2019-03-27T11:31:20.172Z,98664.00
2019-03-27T11:33:52.246Z,98670.00
2019-03-27T11:36:24.201Z,98669.00
2019-03-27T11:38:56.411Z,98682.00
2019-03-27T11:41:28.226Z,98669.00
2019-03-27T11:44:00.682Z,98667.00
2019-03-27T11:46:33.055Z,98667.00
2019-03-27T11:49:05.503Z,98671.00
2019-03-27T11:51:37.477Z,98679.00
2019-03-27T11:54:09.539Z,98669.00
2019-03-27T11:56:41.617Z,98672.00
2019-03-27T11:59:13.714Z,98667.00
2019-03-27T12:01:45.687Z,98671.00
2019-03-27T12:04:17.843Z,98667.00
2019-03-27T12:06:49.853Z,98682.00
2019-03-27T12:09:22.468Z,98671.00
2019-03-27T12:11:54.354Z,98674.00
2019-03-27T12:14:26.367Z,98672.00
2019-03-27T12:16:59.044Z,98679.00
2019-03-27T12:19:31.035Z,98678.00
2019-03-27T12:22:03.096Z,98677.00
2019-03-27T12:24:35.362Z,98677.00
2019-03-27T12:27:07.353Z,98669.00
2019-03-27T12:29:39.630Z,98667.00
2019-03-27T12:32:11.675Z,98671.00
2019-03-27T12:34:43.748Z,98675.00
2019-03-27T12:37:15.816Z,98667.00
2019-03-27T12:39:48.518Z,98666.00
2019-03-27T12:42:21.108Z,98671.00
2019-03-27T12:44:53.182Z,98668.00
2019-03-27T12:47:25.059Z,98658.00
2019-03-27T12:49:57.986Z,98662.00
2019-03-27T12:52:29.879Z,98662.00
2019-03-27T12:55:02.320Z,98671.00
2019-03-27T12:57:34.226Z,98660.00
2019-03-27T13:00:07.959Z,98663.00
2019-03-27T13:02:40.010Z,98661.00
2019-03-27T13:05:12.464Z,98662.00
2019-03-27T13:07:49.804Z,98678.00
2019-03-27T13:10:18.490Z,98666.00
2019-03-27T13:12:50.575Z,98656.00
2019-03-27T13:15:23.233Z,98662.00
2019-03-27T13:17:55.060Z,98660.00
2019-03-27T13:20:27.070Z,98665.00
2019-03-27T13:22:59.055Z,98667.00
2019-03-27T13:25:32.411Z,98657.00
2019-03-27T13:28:04.383Z,98659.00
2019-03-27T13:30:36.433Z,98651.00
2019-03-27T13:33:08.356Z,98661.00
2019-03-27T13:35:40.530Z,98653.00
2019-03-27T13:38:12.487Z,98655.00
2019-03-27T13:40:44.591Z,98653.00
2019-03-27T13:43:16.681Z,98644.00
2019-03-27T13:45:48.675Z,98648.00
2019-03-27T13:48:20.760Z,98649.00
2019-03-27T13:50:52.853Z,98653.00
2019-03-27T13:53:25.210Z,98655.00
2019-03-27T13:55:57.599Z,98651.00
2019-03-27T13:58:29.538Z,98642.00
2019-03-27T14:01:01.632Z,98645.00
2019-03-27T14:03:34.834Z,98634.00
2019-03-27T14:06:06.814Z,98637.00
2019-03-27T14:08:39.095Z,98627.00
2019-03-27T14:11:11.064Z,98628.00
2019-03-27T14:13:43.546Z,98631.00
2019-03-27T14:16:16.279Z,98630.00
2019-03-27T14:18:49.161Z,98634.00
2019-03-27T14:21:23.300Z,98626.00
2019-03-27T14:23:54.915Z,98621.00
2019-03-27T14:26:27.339Z,98623.00
2019-03-27T14:28:59.454Z,98618.00
2019-03-27T14:31:31.590Z,98622.00
2019-03-27T14:34:04.517Z,98631.00
2019-03-27T14:36:36.589Z,98622.00
2019-03-27T14:39:09.728Z,98628.00
2019-03-27T14:41:41.630Z,98622.00
2019-03-27T14:44:13.553Z,98634.00
2019-03-27T14:46:45.626Z,98635.00
2019-03-27T14:49:18.061Z,98631.00
2019-03-27T14:51:50.211Z,98635.00
2019-03-27T14:54:23.034Z,98631.00
2019-03-27T14:56:55.246Z,98629.00
2019-03-27T14:59:27.657Z,98624.00
2019-03-27T15:01:59.742Z,98629.00
2019-03-27T15:04:31.835Z,98623.00
2019-03-27T15:07:04.127Z,98623.00
2019-03-27T15:09:36.342Z,98624.00
2019-03-27T15:12:08.699Z,98623.00
2019-03-27T15:14:40.769Z,98619.00
2019-03-27T15:17:12.651Z,98620.00
2019-03-27T15:19:44.663Z,98629.00
2019-03-27T15:22:22.291Z,98638.00
2019-03-27T15:24:50.467Z,98632.00
2019-03-27T15:27:22.425Z,98630.00
2019-03-27T15:29:54.595Z,98635.00
2019-03-27T15:32:26.690Z,98636.00
2019-03-27T15:34:58.781Z,98640.00
2019-03-27T15:37:31.279Z,98635.00
2019-03-27T15:40:03.404Z,98632.00
2019-03-27T15:42:35.374Z,98631.00
2019-03-27T15:45:09.439Z,98643.00
2019-03-27T15:47:41.462Z,98635.00
2019-03-27T15:50:13.557Z,98628.00
2019-03-27T15:52:45.454Z,98630.00
2019-03-27T15:55:17.421Z,98631.00
2019-03-27T15:57:49.466Z,98635.00
2019-03-27T16:00:21.734Z,98635.00
2019-03-27T16:02:54.078Z,98631.00
2019-03-27T16:05:26.143Z,98632.00
2019-03-27T16:07:58.178Z,98636.00
2019-03-27T16:10:30.582Z,98609.00
2019-03-27T16:13:02.609Z,98638.00
2019-03-27T16:15:37.026Z,98644.00
2019-03-27T16:18:08.826Z,98638.00
2019-03-27T16:20:41.053Z,98642.00
2019-03-27T16:23:13.362Z,98642.00
2019-03-27T16:25:45.417Z,98648.00
2019-03-27T16:28:17.431Z,98644.00
2019-03-27T16:30:49.530Z,98652.00
2019-03-27T16:33:22.722Z,98650.00
2019-03-27T16:36:06.466Z,98647.00
2019-03-27T16:38:38.935Z,98651.00
2019-03-27T16:41:11.045Z,98639.00
2019-03-27T16:43:44.370Z,98644.00
2019-03-27T16:46:16.477Z,98657.00
2019-03-27T16:48:49.168Z,98652.00
2019-03-27T16:51:21.585Z,98653.00
2019-03-27T16:53:53.532Z,98650.00
2019-03-27T16:56:26.921Z,98647.00
2019-03-27T16:58:58.905Z,98666.00
2019-03-27T17:01:31.137Z,98651.00
2019-03-27T17:04:03.278Z,98654.00
2019-03-27T17:06:35.682Z,98656.00
2019-03-27T17:09:09.762Z,98653.00
2019-03-27T17:11:42.015Z,98662.00
2019-03-27T17:14:14.037Z,98661.00
2019-03-27T17:16:46.479Z,98668.00
2019-03-27T17:19:18.740Z,98669.00
2019-03-27T17:21:52.027Z,98663.00
2019-03-27T17:24:24.408Z,98666.00
2019-03-27T17:26:56.782Z,98672.00
2019-03-27T17:29:28.890Z,98672.00
2019-03-27T17:32:01.141Z,98672.00
2019-03-27T17:34:33.412Z,98681.00
2019-03-27T17:37:05.453Z,98684.00
2019-03-27T17:39:38.746Z,98692.00
2019-03-27T17:42:10.738Z,98679.00
2019-03-27T17:44:42.792Z,98679.00
2019-03-27T17:47:15.456Z,98684.00
2019-03-27T17:49:47.746Z,98686.00
2019-03-27T17:52:20.095Z,98692.00
2019-03-27T17:54:52.634Z,98687.00
2019-03-27T17:57:24.643Z,98687.00
2019-03-27T17:59:56.674Z,98696.00
2019-03-27T18:02:29.415Z,98694.00
2019-03-27T18:05:01.507Z,98699.00
2019-03-27T18:07:33.680Z,98703.00
2019-03-27T18:10:06.275Z,98697.00
2019-03-27T18:12:38.423Z,98696.00
2019-03-27T18:15:10.891Z,98702.00
2019-03-27T18:17:43.003Z,98696.00
2019-03-27T18:20:14.937Z,98693.00
2019-03-27T18:22:47.311Z,98697.00
2019-03-27T18:25:19.859Z,98700.00
2019-03-27T18:27:52.371Z,98698.00
2019-03-27T18:30:24.697Z,98705.00
2019-03-27T18:32:57.119Z,98706.00
2019-03-27T18:35:29.435Z,98711.00
2019-03-27T18:38:01.964Z,98714.00
2019-03-27T18:40:33.968Z,98702.00
2019-03-27T18:43:06.076Z,98712.00
2019-03-27T18:45:38.066Z,98720.00
2019-03-27T18:48:10.520Z,98711.00
2019-03-27T18:50:43.210Z,98714.00
2019-03-27T18:53:15.226Z,98718.00
2019-03-27T18:55:47.215Z,98722.00
2019-03-27T18:58:19.376Z,98721.00
2019-03-27T19:00:51.272Z,98721.00
2019-03-27T19:03:23.311Z,98726.00
2019-03-27T19:05:55.244Z,98720.00
2019-03-27T19:08:27.974Z,98730.00
2019-03-27T19:11:00.529Z,98730.00
2019-03-27T19:13:32.442Z,98722.00
2019-03-27T19:16:04.526Z,98722.00
2019-03-27T19:18:36.699Z,98728.00
2019-03-27T19:21:08.817Z,98724.00
2019-03-27T19:23:40.802Z,98734.00
2019-03-27T19:26:13.235Z,98741.00
2019-03-27T19:28:45.606Z,98727.00
2019-03-27T19:31:18.080Z,98737.00
2019-03-27T19:33:50.072Z,98730.00
2019-03-27T19:36:22.277Z,98734.00
2019-03-27T19:38:54.345Z,98733.00
2019-03-27T19:41:26.305Z,98738.00
2019-03-27T19:43:58.614Z,98740.00
2019-03-27T19:46:30.674Z,98739.00
2019-03-27T19:49:02.763Z,98737.00
2019-03-27T19:51:35.990Z,98746.00
2019-03-27T19:54:08.066Z,98745.00
2019-03-27T19:56:40.075Z,98740.00
2019-03-27T19:59:12.358Z,98742.00
2019-03-27T20:01:44.386Z,98748.00
2019-03-27T20:04:17.133Z,98744.00
2019-03-27T20:06:49.229Z,98751.00
2019-03-27T20:09:21.249Z,98742.00
2019-03-27T20:11:53.101Z,98753.00
2019-03-27T20:14:25.405Z,98747.00
2019-03-27T20:16:58.392Z,98748.00
2019-03-27T20:19:30.311Z,98746.00
2019-03-27T20:22:02.470Z,98748.00
2019-03-27T20:24:41.007Z,98743.00
2019-03-27T20:27:08.884Z,98763.00
2019-03-27T20:29:40.863Z,98753.00
2019-03-27T20:32:13.173Z,98753.00
2019-03-27T20:34:45.276Z,98751.00
2019-03-27T20:37:17.715Z,98744.00
2019-03-27T20:39:49.780Z,98742.00
2019-03-27T20:42:22.420Z,98750.00
2019-03-27T20:44:54.425Z,98747.00
2019-03-27T20:47:26.692Z,98748.00
2019-03-27T20:49:59.178Z,98737.00
2019-03-27T20:52:31.153Z,98739.00
2019-03-27T20:55:03.500Z,98742.00
2019-03-27T20:57:35.528Z,98749.00
2019-03-27T21:00:09.365Z,98745.00
2019-03-27T21:02:41.630Z,98745.00
2019-03-27T21:05:14.444Z,98744.00
2019-03-27T21:07:46.387Z,98739.00
2019-03-27T21:10:19.478Z,98738.00
2019-03-27T21:12:51.712Z,98741.00
2019-03-27T21:15:23.808Z,98748.00
2019-03-27T21:17:55.863Z,98743.00
2019-03-27T21:20:27.863Z,98746.00
2019-03-27T21:23:00.904Z,98747.00
2019-03-27T21:25:33.001Z,98748.00
2019-03-27T21:28:05.461Z,98747.00
2019-03-27T21:30:37.566Z,98744.00
2019-03-27T21:33:09.566Z,98759.00
2019-03-27T21:35:41.953Z,98760.00
2019-03-27T21:38:14.040Z,98759.00
2019-03-27T21:40:46.124Z,98765.00
2019-03-27T21:43:18.131Z,98761.00
2019-03-27T21:45:50.192Z,98765.00
2019-03-27T21:48:22.274Z,98772.00
2019-03-27T21:50:54.660Z,98763.00
2019-03-27T21:53:26.654Z,98767.00
2019-03-27T21:55:58.714Z,98767.00
2019-03-27T21:58:30.778Z,98768.00
2019-03-27T22:01:02.926Z,98775.00
2019-03-27T22:03:35.082Z,98770.00
2019-03-27T22:06:07.073Z,98778.00
2019-03-27T22:08:39.111Z,98780.00
2019-03-27T22:11:11.513Z,98779.00
2019-03-27T22:13:43.842Z,98792.00
2019-03-27T22:16:16.059Z,98784.00
2019-03-27T22:18:48.093Z,98787.00
2019-03-27T22:21:20.101Z,98791.00
2019-03-27T22:23:52.557Z,98787.00
2019-03-27T22:26:24.563Z,98796.00
2019-03-27T22:28:56.515Z,98788.00
2019-03-27T22:31:28.715Z,98794.00
2019-03-27T22:34:01.072Z,98799.00
2019-03-27T22:36:33.657Z,98798.00
2019-03-27T22:39:09.978Z,98791.00
2019-03-27T22:41:42.968Z,98794.00
2019-03-27T22:44:15.024Z,98797.00
2019-03-27T22:46:47.238Z,98808.00
2019-03-27T22:49:19.547Z,98799.00
2019-03-27T22:51:51.576Z,98797.00
2019-03-27T22:54:24.121Z,98796.00
2019-03-27T22:56:56.244Z,98801.00
2019-03-27T22:59:28.605Z,98799.00
2019-03-27T23:02:00.659Z,98795.00
2019-03-27T23:04:35.884Z,98798.00
2019-03-27T23:07:08.665Z,98796.00
2019-03-27T23:09:40.768Z,98784.00
2019-03-27T23:12:15.708Z,98788.00
2019-03-27T23:14:49.470Z,98791.00
2019-03-27T23:17:21.472Z,98779.00
2019-03-27T23:19:53.908Z,98780.00
2019-03-27T23:22:26.180Z,98780.00
2019-03-27T23:24:58.460Z,98780.00
2019-03-27T23:27:31.328Z,98783.00
2019-03-27T23:30:05.307Z,98782.00
2019-03-27T23:32:38.734Z,98773.00
2019-03-27T23:35:11.056Z,98773.00
2019-03-27T23:37:42.903Z,98783.00
2019-03-27T23:40:15.168Z,98784.00
2019-03-27T23:42:47.495Z,98771.00
2019-03-27T23:45:19.581Z,98770.00
2019-03-27T23:47:51.634Z,98784.00
2019-03-27T23:50:23.629Z,98769.00
2019-03-27T23:52:56.696Z,98778.00
2019-03-27T23:55:28.740Z,98771.00
2019-03-27T23:58:01.118Z,98776.00
